GLD1121 SAWC-SCBA
Flight info
| Callsign | GLD1121 |
|---|---|
| Flight time | 1h 15m |
| Altitude | 24000 |
| Route | OGTU1C OGTUR G550 NEGOS DCT ESEXI DCT |
| Aircraft | B350/M-SDFGIRY/S |
Departure
| Time | 2026-05-03 21:14 |
|---|---|
| Airport | El Calafate - Commander Armando Tola International Airport (SAWC) |
Arrival
| Time | 2026-05-03 22:29 |
|---|---|
| Airport | Balmaceda Airport (SCBA) |
| Time | Latitude | Longitude | Altitude | Speed | Heading |
|---|---|---|---|---|---|
| 2026-05-03 21:08 | -50.28281 | -72.05486 | 646 ft | 0 kts | 355° |
| 2026-05-03 21:10 | -50.28276 | -72.05485 | 673 ft | 4 kts | 14° |
| 2026-05-03 21:10 | -50.28245 | -72.05410 | 645 ft | 13 kts | 46° |
| 2026-05-03 21:10 | -50.28135 | -72.05409 | 645 ft | 19 kts | 355° |
| 2026-05-03 21:11 | -50.28121 | -72.05410 | 645 ft | 0 kts | 354° |
| 2026-05-03 21:11 | -50.28074 | -72.05416 | 645 ft | 19 kts | 5° |
| 2026-05-03 21:11 | -50.28018 | -72.05203 | 644 ft | 27 kts | 84° |
| 2026-05-03 21:11 | -50.27996 | -72.04885 | 645 ft | 32 kts | 82° |
| 2026-05-03 21:12 | -50.27980 | -72.04518 | 642 ft | 36 kts | 82° |
| 2026-05-03 21:12 | -50.27956 | -72.04110 | 638 ft | 39 kts | 83° |
| 2026-05-03 21:12 | -50.27940 | -72.03770 | 637 ft | 22 kts | 119° |
| 2026-05-03 21:12 | -50.27928 | -72.03579 | 637 ft | 15 kts | 13° |
| 2026-05-03 21:13 | -50.27907 | -72.03693 | 637 ft | 17 kts | 222° |
| 2026-05-03 21:13 | -50.27919 | -72.03725 | 637 ft | 0 kts | 265° |
| 2026-05-03 21:13 | -50.27936 | -72.03878 | 636 ft | 57 kts | 262° |
| 2026-05-03 21:14 | -50.28013 | -72.04964 | 649 ft | 136 kts | 264° |
| 2026-05-03 21:14 | -50.28103 | -72.06631 | 894 ft | 169 kts | 265° |
| 2026-05-03 21:14 | -50.28197 | -72.08494 | 1618 ft | 160 kts | 264° |
| 2026-05-03 21:14 | -50.28324 | -72.10109 | 2627 ft | 151 kts | 265° |
| 2026-05-03 21:15 | -50.28411 | -72.11892 | 2986 ft | 176 kts | 268° |
| 2026-05-03 21:15 | -50.28509 | -72.13841 | 3443 ft | 185 kts | 266° |
| 2026-05-03 21:15 | -50.28646 | -72.15846 | 4036 ft | 185 kts | 266° |
| 2026-05-03 21:15 | -50.28767 | -72.17846 | 4685 ft | 183 kts | 268° |
| 2026-05-03 21:16 | -50.28879 | -72.19827 | 5384 ft | 181 kts | 268° |
| 2026-05-03 21:16 | -50.28994 | -72.21747 | 5979 ft | 179 kts | 268° |
| 2026-05-03 21:16 | -50.29107 | -72.23690 | 6525 ft | 179 kts | 268° |
| 2026-05-03 21:16 | -50.29055 | -72.25607 | 7069 ft | 176 kts | 295° |
| 2026-05-03 21:17 | -50.28116 | -72.26792 | 7585 ft | 185 kts | 333° |
| 2026-05-03 21:17 | -50.27300 | -72.27233 | 7927 ft | 188 kts | 340° |
| 2026-05-03 21:17 | -50.25562 | -72.27765 | 8635 ft | 191 kts | 342° |
| 2026-05-03 21:17 | -50.24284 | -72.28201 | 9165 ft | 190 kts | 340° |
| 2026-05-03 21:18 | -50.22981 | -72.28670 | 9647 ft | 191 kts | 341° |
| 2026-05-03 21:18 | -50.21687 | -72.29108 | 10116 ft | 193 kts | 341° |
| 2026-05-03 21:18 | -50.20369 | -72.29551 | 10584 ft | 194 kts | 341° |
| 2026-05-03 21:18 | -50.19029 | -72.29918 | 11056 ft | 200 kts | 352° |
| 2026-05-03 21:19 | -50.17616 | -72.29717 | 11516 ft | 207 kts | 1° |
| 2026-05-03 21:19 | -50.16194 | -72.29300 | 11984 ft | 209 kts | 4° |
| 2026-05-03 21:19 | -50.14773 | -72.28742 | 12434 ft | 214 kts | 10° |
| 2026-05-03 21:19 | -50.13375 | -72.27973 | 12878 ft | 217 kts | 11° |
| 2026-05-03 21:20 | -50.11912 | -72.27236 | 13115 ft | 225 kts | 9° |
| 2026-05-03 21:20 | -50.10378 | -72.26478 | 13221 ft | 237 kts | 11° |
| 2026-05-03 21:20 | -50.08772 | -72.25650 | 13273 ft | 247 kts | 11° |
| 2026-05-03 21:20 | -50.07106 | -72.24806 | 13298 ft | 255 kts | 11° |
| 2026-05-03 21:21 | -50.05399 | -72.23948 | 13318 ft | 261 kts | 12° |
| 2026-05-03 21:21 | -50.03656 | -72.23064 | 13307 ft | 265 kts | 12° |
| 2026-05-03 21:21 | -50.01893 | -72.22177 | 13326 ft | 267 kts | 12° |
| 2026-05-03 21:21 | -50.00112 | -72.21278 | 13325 ft | 270 kts | 12° |
| 2026-05-03 21:22 | -49.98349 | -72.20389 | 13321 ft | 271 kts | 12° |
| 2026-05-03 21:22 | -49.96546 | -72.19483 | 13319 ft | 271 kts | 12° |
| 2026-05-03 21:22 | -49.94747 | -72.18576 | 13320 ft | 272 kts | 12° |
| 2026-05-03 21:22 | -49.92943 | -72.17672 | 13317 ft | 272 kts | 12° |
| 2026-05-03 21:23 | -49.91139 | -72.16764 | 13320 ft | 272 kts | 12° |
| 2026-05-03 21:23 | -49.89336 | -72.15859 | 13325 ft | 272 kts | 12° |
| 2026-05-03 21:23 | -49.87562 | -72.14969 | 13324 ft | 272 kts | 12° |
| 2026-05-03 21:23 | -49.85759 | -72.14064 | 13322 ft | 272 kts | 12° |
| 2026-05-03 21:24 | -49.83957 | -72.13162 | 13328 ft | 272 kts | 11° |
| 2026-05-03 21:24 | -49.82152 | -72.12259 | 13329 ft | 273 kts | 11° |
| 2026-05-03 21:24 | -49.80344 | -72.11353 | 13326 ft | 273 kts | 11° |
| 2026-05-03 21:24 | -49.78532 | -72.10448 | 13320 ft | 273 kts | 11° |
| 2026-05-03 21:25 | -49.76721 | -72.09545 | 13320 ft | 273 kts | 11° |
| 2026-05-03 21:25 | -49.74914 | -72.08642 | 13317 ft | 273 kts | 11° |
| 2026-05-03 21:25 | -49.73106 | -72.07740 | 13322 ft | 273 kts | 11° |
| 2026-05-03 21:25 | -49.71319 | -72.06851 | 13323 ft | 273 kts | 11° |
| 2026-05-03 21:26 | -49.69510 | -72.05950 | 13321 ft | 273 kts | 11° |
| 2026-05-03 21:26 | -49.67700 | -72.05049 | 13322 ft | 273 kts | 11° |
| 2026-05-03 21:26 | -49.65886 | -72.04149 | 13322 ft | 273 kts | 11° |
| 2026-05-03 21:26 | -49.64076 | -72.03248 | 13323 ft | 273 kts | 11° |
| 2026-05-03 21:27 | -49.62283 | -72.02359 | 13318 ft | 273 kts | 11° |
| 2026-05-03 21:27 | -49.60461 | -72.01456 | 13322 ft | 273 kts | 11° |
| 2026-05-03 21:27 | -49.58642 | -72.00554 | 13319 ft | 273 kts | 11° |
| 2026-05-03 21:27 | -49.56827 | -71.99656 | 13324 ft | 274 kts | 11° |
| 2026-05-03 21:28 | -49.55034 | -71.98768 | 13318 ft | 274 kts | 11° |
| 2026-05-03 21:28 | -49.53225 | -71.97875 | 13314 ft | 273 kts | 11° |
| 2026-05-03 21:28 | -49.51409 | -71.96978 | 13325 ft | 274 kts | 10° |
| 2026-05-03 21:28 | -49.49592 | -71.96080 | 13317 ft | 274 kts | 10° |
| 2026-05-03 21:29 | -49.47762 | -71.95282 | 13312 ft | 271 kts | 6° |
| 2026-05-03 21:29 | -49.45942 | -71.94689 | 13313 ft | 269 kts | 4° |
| 2026-05-03 21:29 | -49.44097 | -71.94159 | 13324 ft | 269 kts | 2° |
| 2026-05-03 21:29 | -49.42242 | -71.93740 | 13327 ft | 266 kts | 356° |
| 2026-05-03 21:30 | -49.40394 | -71.93588 | 13321 ft | 266 kts | 357° |
| 2026-05-03 21:30 | -49.39162 | -71.93418 | 13321 ft | 268 kts | 358° |
| 2026-05-03 21:30 | -49.37470 | -71.93187 | 13315 ft | 267 kts | 357° |
| 2026-05-03 21:30 | -49.35078 | -71.92909 | 13324 ft | 267 kts | 357° |
| 2026-05-03 21:31 | -49.33850 | -71.92749 | 13328 ft | 267 kts | 357° |
| 2026-05-03 21:31 | -49.31986 | -71.92516 | 13313 ft | 267 kts | 357° |
| 2026-05-03 21:31 | -49.29521 | -71.92215 | 13316 ft | 267 kts | 357° |
| 2026-05-03 21:31 | -49.28293 | -71.92061 | 13315 ft | 267 kts | 357° |
| 2026-05-03 21:32 | -49.26433 | -71.91831 | 13315 ft | 267 kts | 357° |
| 2026-05-03 21:32 | -49.24577 | -71.91603 | 13314 ft | 267 kts | 357° |
| 2026-05-03 21:32 | -49.22714 | -71.91371 | 13316 ft | 267 kts | 357° |
| 2026-05-03 21:32 | -49.20885 | -71.91147 | 13322 ft | 267 kts | 357° |
| 2026-05-03 21:33 | -49.19029 | -71.90918 | 13325 ft | 267 kts | 357° |
| 2026-05-03 21:33 | -49.17166 | -71.90688 | 13323 ft | 268 kts | 356° |
| 2026-05-03 21:33 | -49.15305 | -71.90458 | 13328 ft | 268 kts | 357° |
| 2026-05-03 21:33 | -49.13444 | -71.90230 | 13324 ft | 269 kts | 357° |
| 2026-05-03 21:34 | -49.11603 | -71.90003 | 13318 ft | 268 kts | 356° |
| 2026-05-03 21:34 | -49.09736 | -71.89774 | 13323 ft | 269 kts | 356° |
| 2026-05-03 21:34 | -49.07877 | -71.89547 | 13319 ft | 268 kts | 356° |
| 2026-05-03 21:34 | -49.06015 | -71.89317 | 13319 ft | 268 kts | 356° |
| 2026-05-03 21:35 | -49.04152 | -71.89090 | 13321 ft | 268 kts | 356° |
| 2026-05-03 21:35 | -49.02287 | -71.88862 | 13326 ft | 267 kts | 356° |
| 2026-05-03 21:35 | -49.00454 | -71.88637 | 13328 ft | 267 kts | 356° |
| 2026-05-03 21:35 | -48.98606 | -71.88408 | 13334 ft | 264 kts | 356° |
| 2026-05-03 21:36 | -48.96779 | -71.88190 | 13330 ft | 262 kts | 356° |
| 2026-05-03 21:36 | -48.94966 | -71.87970 | 13329 ft | 260 kts | 356° |
| 2026-05-03 21:36 | -48.93163 | -71.87748 | 13333 ft | 259 kts | 356° |
| 2026-05-03 21:36 | -48.91364 | -71.87529 | 13329 ft | 258 kts | 356° |
| 2026-05-03 21:37 | -48.89597 | -71.87314 | 13333 ft | 258 kts | 356° |
| 2026-05-03 21:37 | -48.87806 | -71.87095 | 13336 ft | 258 kts | 356° |
| 2026-05-03 21:37 | -48.86021 | -71.86878 | 13338 ft | 257 kts | 356° |
| 2026-05-03 21:37 | -48.84239 | -71.86660 | 13344 ft | 257 kts | 356° |
| 2026-05-03 21:38 | -48.82451 | -71.86444 | 13342 ft | 257 kts | 356° |
| 2026-05-03 21:38 | -48.80667 | -71.86228 | 13345 ft | 257 kts | 356° |
| 2026-05-03 21:38 | -48.78885 | -71.86010 | 13351 ft | 257 kts | 356° |
| 2026-05-03 21:38 | -48.77103 | -71.85795 | 13349 ft | 257 kts | 355° |
| 2026-05-03 21:39 | -48.75321 | -71.85580 | 13349 ft | 256 kts | 355° |
| 2026-05-03 21:39 | -48.73545 | -71.85364 | 13351 ft | 256 kts | 355° |
| 2026-05-03 21:39 | -48.71769 | -71.85148 | 13347 ft | 255 kts | 355° |
| 2026-05-03 21:39 | -48.70021 | -71.84940 | 13351 ft | 255 kts | 355° |
| 2026-05-03 21:40 | -48.68254 | -71.84725 | 13356 ft | 254 kts | 355° |
| 2026-05-03 21:40 | -48.66490 | -71.84511 | 13355 ft | 254 kts | 355° |
| 2026-05-03 21:40 | -48.64728 | -71.84301 | 13361 ft | 254 kts | 355° |
| 2026-05-03 21:40 | -48.62968 | -71.84088 | 13367 ft | 253 kts | 355° |
| 2026-05-03 21:41 | -48.61208 | -71.83877 | 13371 ft | 254 kts | 355° |
| 2026-05-03 21:41 | -48.59436 | -71.83663 | 13371 ft | 255 kts | 355° |
| 2026-05-03 21:41 | -48.57664 | -71.83449 | 13365 ft | 256 kts | 355° |
| 2026-05-03 21:41 | -48.55892 | -71.83237 | 13361 ft | 255 kts | 355° |
| 2026-05-03 21:42 | -48.54143 | -71.83027 | 13366 ft | 255 kts | 355° |
| 2026-05-03 21:42 | -48.52375 | -71.82815 | 13364 ft | 254 kts | 355° |
| 2026-05-03 21:42 | -48.50609 | -71.82602 | 13366 ft | 254 kts | 355° |
| 2026-05-03 21:42 | -48.48848 | -71.82391 | 13357 ft | 253 kts | 355° |
| 2026-05-03 21:43 | -48.47084 | -71.82182 | 13389 ft | 253 kts | 354° |
| 2026-05-03 21:43 | -48.45338 | -71.81973 | 13382 ft | 255 kts | 355° |
| 2026-05-03 21:43 | -48.43558 | -71.81757 | 13379 ft | 257 kts | 355° |
| 2026-05-03 21:43 | -48.41775 | -71.81545 | 13350 ft | 257 kts | 355° |
| 2026-05-03 21:44 | -48.39982 | -71.81331 | 13329 ft | 257 kts | 355° |
| 2026-05-03 21:44 | -48.38197 | -71.81118 | 13313 ft | 257 kts | 354° |
| 2026-05-03 21:44 | -48.36437 | -71.80909 | 13309 ft | 256 kts | 354° |
| 2026-05-03 21:44 | -48.34660 | -71.80697 | 13312 ft | 256 kts | 354° |
| 2026-05-03 21:45 | -48.32929 | -71.80492 | 13312 ft | 256 kts | 354° |
| 2026-05-03 21:45 | -48.31152 | -71.80279 | 13313 ft | 256 kts | 354° |
| 2026-05-03 21:45 | -48.29374 | -71.80068 | 13290 ft | 256 kts | 354° |
| 2026-05-03 21:45 | -48.27599 | -71.79857 | 13280 ft | 256 kts | 354° |
| 2026-05-03 21:46 | -48.25848 | -71.79649 | 13278 ft | 256 kts | 354° |
| 2026-05-03 21:46 | -48.24071 | -71.79438 | 13267 ft | 256 kts | 354° |
| 2026-05-03 21:46 | -48.22297 | -71.79229 | 13257 ft | 256 kts | 354° |
| 2026-05-03 21:46 | -48.20522 | -71.79019 | 13253 ft | 255 kts | 354° |
| 2026-05-03 21:47 | -48.18750 | -71.78807 | 13252 ft | 255 kts | 354° |
| 2026-05-03 21:47 | -48.16983 | -71.78599 | 13248 ft | 255 kts | 354° |
| 2026-05-03 21:47 | -48.15212 | -71.78390 | 13244 ft | 255 kts | 354° |
| 2026-05-03 21:47 | -48.13445 | -71.78178 | 13244 ft | 255 kts | 354° |
| 2026-05-03 21:48 | -48.11725 | -71.77974 | 13245 ft | 254 kts | 354° |
| 2026-05-03 21:48 | -48.09980 | -71.77775 | 13228 ft | 254 kts | 353° |
| 2026-05-03 21:48 | -48.08213 | -71.77569 | 13213 ft | 255 kts | 354° |
| 2026-05-03 21:48 | -48.06446 | -71.77361 | 13211 ft | 254 kts | 354° |
| 2026-05-03 21:49 | -48.04681 | -71.77157 | 13207 ft | 254 kts | 354° |
| 2026-05-03 21:49 | -48.02919 | -71.76952 | 13205 ft | 254 kts | 354° |
| 2026-05-03 21:49 | -48.01158 | -71.76747 | 13203 ft | 254 kts | 354° |
| 2026-05-03 21:49 | -47.99401 | -71.76545 | 13187 ft | 254 kts | 354° |
| 2026-05-03 21:50 | -47.97636 | -71.76339 | 13192 ft | 254 kts | 353° |
| 2026-05-03 21:50 | -47.95876 | -71.76137 | 13193 ft | 254 kts | 354° |
| 2026-05-03 21:50 | -47.94119 | -71.75931 | 13199 ft | 254 kts | 354° |
| 2026-05-03 21:50 | -47.92359 | -71.75728 | 13180 ft | 254 kts | 354° |
| 2026-05-03 21:51 | -47.90601 | -71.75526 | 13159 ft | 253 kts | 354° |
| 2026-05-03 21:51 | -47.88864 | -71.75323 | 13153 ft | 253 kts | 353° |
| 2026-05-03 21:51 | -47.87107 | -71.75123 | 13140 ft | 253 kts | 353° |
| 2026-05-03 21:51 | -47.85348 | -71.74918 | 13133 ft | 253 kts | 353° |
| 2026-05-03 21:52 | -47.83591 | -71.74717 | 13108 ft | 253 kts | 353° |
| 2026-05-03 21:52 | -47.81833 | -71.74513 | 13091 ft | 253 kts | 353° |
| 2026-05-03 21:52 | -47.80078 | -71.74312 | 13079 ft | 253 kts | 353° |
| 2026-05-03 21:52 | -47.78324 | -71.74110 | 13067 ft | 253 kts | 353° |
| 2026-05-03 21:53 | -47.76570 | -71.73908 | 13053 ft | 253 kts | 353° |
| 2026-05-03 21:53 | -47.74817 | -71.73707 | 13047 ft | 253 kts | 353° |
| 2026-05-03 21:53 | -47.73061 | -71.73505 | 13021 ft | 253 kts | 353° |
| 2026-05-03 21:53 | -47.71330 | -71.73306 | 13017 ft | 253 kts | 353° |
| 2026-05-03 21:54 | -47.69571 | -71.73105 | 13010 ft | 252 kts | 353° |
| 2026-05-03 21:54 | -47.67817 | -71.72904 | 12996 ft | 252 kts | 353° |
| 2026-05-03 21:54 | -47.66064 | -71.72703 | 12975 ft | 252 kts | 353° |
| 2026-05-03 21:54 | -47.64313 | -71.72504 | 12966 ft | 252 kts | 353° |
| 2026-05-03 21:55 | -47.62518 | -71.72306 | 12677 ft | 264 kts | 354° |
| 2026-05-03 21:55 | -47.60699 | -71.72079 | 12651 ft | 265 kts | 354° |
| 2026-05-03 21:55 | -47.58859 | -71.71876 | 12619 ft | 264 kts | 354° |
| 2026-05-03 21:55 | -47.57020 | -71.71670 | 12595 ft | 265 kts | 354° |
| 2026-05-03 21:56 | -47.55184 | -71.71457 | 12571 ft | 264 kts | 354° |
| 2026-05-03 21:56 | -47.53337 | -71.71252 | 12419 ft | 268 kts | 354° |
| 2026-05-03 21:56 | -47.51524 | -71.71038 | 12588 ft | 261 kts | 354° |
| 2026-05-03 21:56 | -47.49720 | -71.70841 | 12659 ft | 259 kts | 353° |
| 2026-05-03 21:57 | -47.47916 | -71.70638 | 12670 ft | 260 kts | 353° |
| 2026-05-03 21:57 | -47.46109 | -71.70426 | 12614 ft | 260 kts | 353° |
| 2026-05-03 21:57 | -47.44307 | -71.70223 | 12643 ft | 259 kts | 353° |
| 2026-05-03 21:57 | -47.42496 | -71.70017 | 12637 ft | 261 kts | 353° |
| 2026-05-03 21:58 | -47.40700 | -71.69814 | 12628 ft | 263 kts | 353° |
| 2026-05-03 21:58 | -47.38870 | -71.69605 | 12614 ft | 264 kts | 353° |
| 2026-05-03 21:58 | -47.37020 | -71.69397 | 12627 ft | 265 kts | 353° |
| 2026-05-03 21:58 | -47.35192 | -71.69188 | 12614 ft | 266 kts | 353° |
| 2026-05-03 21:59 | -47.33348 | -71.68979 | 12601 ft | 265 kts | 353° |
| 2026-05-03 21:59 | -47.31512 | -71.68775 | 12607 ft | 265 kts | 353° |
| 2026-05-03 21:59 | -47.29673 | -71.68566 | 12602 ft | 264 kts | 353° |
| 2026-05-03 21:59 | -47.27869 | -71.68363 | 12614 ft | 264 kts | 353° |
| 2026-05-03 22:00 | -47.26008 | -71.68154 | 12609 ft | 264 kts | 353° |
| 2026-05-03 22:00 | -47.24180 | -71.67946 | 12620 ft | 264 kts | 353° |
| 2026-05-03 22:00 | -47.22347 | -71.67741 | 12615 ft | 264 kts | 353° |
| 2026-05-03 22:00 | -47.20546 | -71.67550 | 12627 ft | 263 kts | 353° |
| 2026-05-03 22:01 | -47.18715 | -71.67339 | 12623 ft | 265 kts | 354° |
| 2026-05-03 22:01 | -47.16877 | -71.67113 | 12620 ft | 264 kts | 353° |
| 2026-05-03 22:01 | -47.15042 | -71.66919 | 12625 ft | 264 kts | 353° |
| 2026-05-03 22:01 | -47.13208 | -71.66709 | 12609 ft | 264 kts | 354° |
| 2026-05-03 22:02 | -47.11373 | -71.66504 | 12616 ft | 264 kts | 353° |
| 2026-05-03 22:02 | -47.09541 | -71.66301 | 12620 ft | 264 kts | 353° |
| 2026-05-03 22:02 | -47.07713 | -71.66097 | 12649 ft | 265 kts | 354° |
| 2026-05-03 22:02 | -47.05870 | -71.65890 | 12611 ft | 266 kts | 354° |
| 2026-05-03 22:03 | -47.04028 | -71.65683 | 12620 ft | 265 kts | 354° |
| 2026-05-03 22:03 | -47.02190 | -71.65478 | 12623 ft | 264 kts | 354° |
| 2026-05-03 22:03 | -47.00376 | -71.65276 | 12666 ft | 265 kts | 354° |
| 2026-05-03 22:03 | -46.98506 | -71.65072 | 12658 ft | 267 kts | 354° |
| 2026-05-03 22:04 | -46.96673 | -71.64858 | 12637 ft | 267 kts | 354° |
| 2026-05-03 22:04 | -46.94824 | -71.64657 | 12624 ft | 266 kts | 354° |
| 2026-05-03 22:04 | -46.92974 | -71.64452 | 12645 ft | 265 kts | 354° |
| 2026-05-03 22:04 | -46.91130 | -71.64248 | 12640 ft | 266 kts | 354° |
| 2026-05-03 22:05 | -46.89281 | -71.64039 | 12640 ft | 267 kts | 354° |
| 2026-05-03 22:05 | -46.87434 | -71.63835 | 12643 ft | 267 kts | 354° |
| 2026-05-03 22:05 | -46.85580 | -71.63629 | 12635 ft | 267 kts | 354° |
| 2026-05-03 22:05 | -46.83751 | -71.63426 | 12641 ft | 267 kts | 354° |
| 2026-05-03 22:06 | -46.81897 | -71.63221 | 12646 ft | 267 kts | 354° |
| 2026-05-03 22:06 | -46.80044 | -71.63014 | 12651 ft | 267 kts | 354° |
| 2026-05-03 22:06 | -46.78188 | -71.62809 | 12640 ft | 268 kts | 354° |
| 2026-05-03 22:06 | -46.76326 | -71.62630 | 12622 ft | 268 kts | 353° |
| 2026-05-03 22:07 | -46.74472 | -71.62500 | 12647 ft | 266 kts | 352° |
| 2026-05-03 22:07 | -46.72627 | -71.62489 | 12644 ft | 262 kts | 346° |
| 2026-05-03 22:07 | -46.70825 | -71.62718 | 12626 ft | 261 kts | 346° |
| 2026-05-03 22:07 | -46.68995 | -71.62841 | 12644 ft | 263 kts | 348° |
| 2026-05-03 22:08 | -46.67195 | -71.62993 | 12696 ft | 262 kts | 346° |
| 2026-05-03 22:08 | -46.65369 | -71.63164 | 12707 ft | 262 kts | 347° |
| 2026-05-03 22:08 | -46.63541 | -71.63324 | 12673 ft | 263 kts | 347° |
| 2026-05-03 22:08 | -46.61704 | -71.63448 | 12667 ft | 264 kts | 347° |
| 2026-05-03 22:09 | -46.59870 | -71.63613 | 12629 ft | 262 kts | 347° |
| 2026-05-03 22:09 | -46.58050 | -71.63759 | 12217 ft | 261 kts | 347° |
| 2026-05-03 22:09 | -46.56297 | -71.63910 | 12147 ft | 248 kts | 346° |
| 2026-05-03 22:10 | -46.52980 | -71.64198 | 12135 ft | 231 kts | 345° |
| 2026-05-03 22:10 | -46.51387 | -71.64329 | 12126 ft | 227 kts | 345° |
| 2026-05-03 22:10 | -46.49842 | -71.64459 | 12113 ft | 224 kts | 345° |
| 2026-05-03 22:10 | -46.48290 | -71.64589 | 12106 ft | 222 kts | 345° |
| 2026-05-03 22:11 | -46.46752 | -71.64714 | 12046 ft | 219 kts | 345° |
| 2026-05-03 22:11 | -46.45229 | -71.64839 | 11739 ft | 219 kts | 344° |
| 2026-05-03 22:11 | -46.43684 | -71.64981 | 11049 ft | 232 kts | 345° |
| 2026-05-03 22:11 | -46.42012 | -71.65109 | 10265 ft | 245 kts | 347° |
| 2026-05-03 22:12 | -46.40310 | -71.65235 | 9735 ft | 242 kts | 345° |
| 2026-05-03 22:12 | -46.38653 | -71.65390 | 9233 ft | 239 kts | 345° |
| 2026-05-03 22:12 | -46.36997 | -71.65535 | 8665 ft | 237 kts | 346° |
| 2026-05-03 22:12 | -46.35350 | -71.65668 | 8119 ft | 236 kts | 347° |
| 2026-05-03 22:13 | -46.33714 | -71.65803 | 7596 ft | 234 kts | 347° |
| 2026-05-03 22:13 | -46.32091 | -71.65940 | 7119 ft | 232 kts | 348° |
| 2026-05-03 22:13 | -46.30532 | -71.66068 | 6879 ft | 223 kts | 348° |
| 2026-05-03 22:13 | -46.28962 | -71.66212 | 6772 ft | 227 kts | 349° |
| 2026-05-03 22:14 | -46.27377 | -71.66326 | 6720 ft | 228 kts | 349° |
| 2026-05-03 22:14 | -46.26045 | -71.66436 | 6701 ft | 227 kts | 349° |
| 2026-05-03 22:14 | -46.24459 | -71.66268 | 6685 ft | 239 kts | 14° |
| 2026-05-03 22:14 | -46.23079 | -71.64813 | 6681 ft | 250 kts | 36° |
| 2026-05-03 22:15 | -46.21837 | -71.63092 | 6682 ft | 251 kts | 37° |
| 2026-05-03 22:15 | -46.20576 | -71.61351 | 6671 ft | 251 kts | 36° |
| 2026-05-03 22:15 | -46.19289 | -71.59630 | 6588 ft | 252 kts | 36° |
| 2026-05-03 22:15 | -46.17951 | -71.57900 | 6315 ft | 260 kts | 36° |
| 2026-05-03 22:16 | -46.16833 | -71.55847 | 6160 ft | 269 kts | 65° |
| 2026-05-03 22:16 | -46.16694 | -71.53159 | 6021 ft | 274 kts | 103° |
| 2026-05-03 22:16 | -46.17600 | -71.50822 | 5884 ft | 270 kts | 140° |
| 2026-05-03 22:16 | -46.19083 | -71.49216 | 5748 ft | 266 kts | 150° |
| 2026-05-03 22:17 | -46.20639 | -71.47759 | 5599 ft | 265 kts | 152° |
| 2026-05-03 22:17 | -46.22212 | -71.46378 | 5537 ft | 261 kts | 157° |
| 2026-05-03 22:17 | -46.23848 | -71.45471 | 5499 ft | 254 kts | 168° |
| 2026-05-03 22:17 | -46.25559 | -71.44857 | 5492 ft | 250 kts | 172° |
| 2026-05-03 22:18 | -46.27108 | -71.43671 | 5483 ft | 260 kts | 136° |
| 2026-05-03 22:18 | -46.27908 | -71.41336 | 5483 ft | 263 kts | 97° |
| 2026-05-03 22:18 | -46.27656 | -71.38817 | 5459 ft | 255 kts | 59° |
| 2026-05-03 22:18 | -46.26494 | -71.37051 | 5474 ft | 239 kts | 20° |
| 2026-05-03 22:19 | -46.24936 | -71.36744 | 5478 ft | 220 kts | 340° |
| 2026-05-03 22:19 | -46.23676 | -71.37855 | 5472 ft | 211 kts | 316° |
| 2026-05-03 22:19 | -46.22554 | -71.39231 | 5465 ft | 211 kts | 316° |
| 2026-05-03 22:19 | -46.21431 | -71.40597 | 5473 ft | 211 kts | 316° |
| 2026-05-03 22:20 | -46.20280 | -71.41927 | 5481 ft | 212 kts | 319° |
| 2026-05-03 22:20 | -46.18989 | -71.42907 | 5490 ft | 220 kts | 342° |
| 2026-05-03 22:20 | -46.17452 | -71.43184 | 5475 ft | 225 kts | 352° |
| 2026-05-03 22:20 | -46.15887 | -71.43200 | 5476 ft | 226 kts | 354° |
| 2026-05-03 22:21 | -46.14308 | -71.43158 | 5476 ft | 226 kts | 355° |
| 2026-05-03 22:21 | -46.12750 | -71.43235 | 5477 ft | 220 kts | 341° |
| 2026-05-03 22:21 | -46.11321 | -71.43938 | 5489 ft | 216 kts | 331° |
| 2026-05-03 22:21 | -46.09857 | -71.44454 | 5479 ft | 225 kts | 357° |
| 2026-05-03 22:22 | -46.08286 | -71.44218 | 5476 ft | 228 kts | 0° |
| 2026-05-03 22:22 | -46.06725 | -71.43994 | 5469 ft | 226 kts | 358° |
| 2026-05-03 22:22 | -46.05153 | -71.43837 | 5475 ft | 226 kts | 357° |
| 2026-05-03 22:22 | -46.03580 | -71.43676 | 5475 ft | 228 kts | 359° |
| 2026-05-03 22:23 | -46.01981 | -71.43279 | 5347 ft | 235 kts | 5° |
| 2026-05-03 22:23 | -46.00395 | -71.42853 | 5302 ft | 234 kts | 2° |
| 2026-05-03 22:23 | -45.98792 | -71.42481 | 5133 ft | 233 kts | 3° |
| 2026-05-03 22:23 | -45.97221 | -71.42081 | 5061 ft | 220 kts | 3° |
| 2026-05-03 22:24 | -45.96269 | -71.42035 | 5041 ft | 195 kts | 339° |
| 2026-05-03 22:24 | -45.95159 | -71.43567 | 5022 ft | 161 kts | 294° |
| 2026-05-03 22:24 | -45.94732 | -71.45048 | 4794 ft | 160 kts | 289° |
| 2026-05-03 22:24 | -45.94505 | -71.46036 | 4739 ft | 152 kts | 287° |
| 2026-05-03 22:25 | -45.94223 | -71.47431 | 4766 ft | 138 kts | 285° |
| 2026-05-03 22:25 | -45.94051 | -71.48704 | 4664 ft | 126 kts | 280° |
| 2026-05-03 22:25 | -45.93922 | -71.49949 | 4449 ft | 126 kts | 280° |
| 2026-05-03 22:25 | -45.93772 | -71.51197 | 4198 ft | 127 kts | 281° |
| 2026-05-03 22:26 | -45.93612 | -71.52449 | 3963 ft | 127 kts | 281° |
| 2026-05-03 22:26 | -45.93461 | -71.53692 | 3742 ft | 128 kts | 281° |
| 2026-05-03 22:26 | -45.93310 | -71.54977 | 3420 ft | 135 kts | 280° |
| 2026-05-03 22:26 | -45.93154 | -71.56348 | 3102 ft | 137 kts | 283° |
| 2026-05-03 22:27 | -45.92973 | -71.57658 | 2934 ft | 131 kts | 283° |
| 2026-05-03 22:27 | -45.92817 | -71.58914 | 2710 ft | 127 kts | 282° |
| 2026-05-03 22:27 | -45.92673 | -71.60141 | 2434 ft | 124 kts | 282° |
| 2026-05-03 22:27 | -45.92525 | -71.61342 | 2214 ft | 117 kts | 281° |
| 2026-05-03 22:28 | -45.92390 | -71.62497 | 2189 ft | 119 kts | 281° |
| 2026-05-03 22:28 | -45.92244 | -71.63683 | 2177 ft | 120 kts | 281° |
| 2026-05-03 22:28 | -45.92092 | -71.64851 | 2004 ft | 118 kts | 281° |
| 2026-05-03 22:28 | -45.91961 | -71.65947 | 1865 ft | 104 kts | 280° |
| 2026-05-03 22:29 | -45.91854 | -71.66882 | 1744 ft | 88 kts | 282° |
| 2026-05-03 22:29 | -45.91752 | -71.67695 | 1691 ft | 77 kts | 282° |
| 2026-05-03 22:29 | -45.91665 | -71.68406 | 1691 ft | 65 kts | 283° |
| 2026-05-03 22:29 | -45.91627 | -71.68664 | 1693 ft | 15 kts | 279° |
| 2026-05-03 22:30 | -45.91607 | -71.68807 | 1697 ft | 14 kts | 289° |
| 2026-05-03 22:30 | -45.91566 | -71.68925 | 1699 ft | 13 kts | 301° |
| 2026-05-03 22:30 | -45.91515 | -71.69030 | 1703 ft | 13 kts | 311° |
| 2026-05-03 22:30 | -45.91458 | -71.69130 | 1705 ft | 16 kts | 307° |
| 2026-05-03 22:31 | -45.91357 | -71.69206 | 1705 ft | 0 kts | 339° |
| 2026-05-03 22:31 | -45.91337 | -71.69212 | 1706 ft | 0 kts | 341° |